sensor_id;sensor_type;location;lat;lon;timestamp;temperature;humidity
47168;DHT22;32931;47.778;17.806;2023-04-01T00:00:32;10.00;99.90
47168;DHT22;32931;47.778;17.806;2023-04-01T00:02:59;10.00;99.90
47168;DHT22;32931;47.778;17.806;2023-04-01T00:05:26;10.00;99.90
47168;DHT22;32931;47.778;17.806;2023-04-01T00:07:52;10.00;99.90
47168;DHT22;32931;47.778;17.806;2023-04-01T00:10:19;9.90;99.90
47168;DHT22;32931;47.778;17.806;2023-04-01T00:12:45;10.00;99.90
47168;DHT22;32931;47.778;17.806;2023-04-01T00:15:11;9.90;99.90
47168;DHT22;32931;47.778;17.806;2023-04-01T00:17:38;9.90;99.90
47168;DHT22;32931;47.778;17.806;2023-04-01T00:20:05;9.90;99.90
47168;DHT22;32931;47.778;17.806;2023-04-01T00:22:33;10.00;99.90
47168;DHT22;32931;47.778;17.806;2023-04-01T00:24:59;9.90;99.90
47168;DHT22;32931;47.778;17.806;2023-04-01T00:27:26;9.90;99.90
47168;DHT22;32931;47.778;17.806;2023-04-01T00:29:52;9.90;99.90
47168;DHT22;32931;47.778;17.806;2023-04-01T00:32:18;9.90;99.90
47168;DHT22;32931;47.778;17.806;2023-04-01T00:34:44;9.90;99.90
47168;DHT22;32931;47.778;17.806;2023-04-01T00:37:11;9.90;99.90
47168;DHT22;32931;47.778;17.806;2023-04-01T00:39:37;9.80;99.90
47168;DHT22;32931;47.778;17.806;2023-04-01T00:42:04;9.90;99.90
47168;DHT22;32931;47.778;17.806;2023-04-01T00:44:33;9.90;99.90
47168;DHT22;32931;47.778;17.806;2023-04-01T00:47:00;9.90;99.90
47168;DHT22;32931;47.778;17.806;2023-04-01T00:49:30;9.90;99.90
47168;DHT22;32931;47.778;17.806;2023-04-01T00:51:59;9.90;99.90
47168;DHT22;32931;47.778;17.806;2023-04-01T00:54:27;9.80;99.90
47168;DHT22;32931;47.778;17.806;2023-04-01T00:57:08;9.80;99.90
47168;DHT22;32931;47.778;17.806;2023-04-01T00:59:46;9.90;99.90
47168;DHT22;32931;47.778;17.806;2023-04-01T01:02:15;9.90;99.90
47168;DHT22;32931;47.778;17.806;2023-04-01T01:04:42;9.90;99.90
47168;DHT22;32931;47.778;17.806;2023-04-01T01:07:30;9.80;99.90
47168;DHT22;32931;47.778;17.806;2023-04-01T01:10:20;9.80;99.90
47168;DHT22;32931;47.778;17.806;2023-04-01T01:37:10;9.50;99.90
47168;DHT22;32931;47.778;17.806;2023-04-01T01:39:37;9.40;99.90
47168;DHT22;32931;47.778;17.806;2023-04-01T01:42:07;9.40;99.90
47168;DHT22;32931;47.778;17.806;2023-04-01T01:44:35;9.40;99.90
47168;DHT22;32931;47.778;17.806;2023-04-01T01:47:03;9.50;99.90
47168;DHT22;32931;47.778;17.806;2023-04-01T01:49:30;9.40;99.90
47168;DHT22;32931;47.778;17.806;2023-04-01T01:51:58;9.40;99.90
47168;DHT22;32931;47.778;17.806;2023-04-01T01:54:24;9.40;99.90
47168;DHT22;32931;47.778;17.806;2023-04-01T01:56:55;9.40;99.90
47168;DHT22;32931;47.778;17.806;2023-04-01T01:59:25;9.40;99.90
47168;DHT22;32931;47.778;17.806;2023-04-01T02:01:56;9.40;99.90
47168;DHT22;32931;47.778;17.806;2023-04-01T02:04:25;9.40;99.90
47168;DHT22;32931;47.778;17.806;2023-04-01T02:07:04;9.50;99.90
47168;DHT22;32931;47.778;17.806;2023-04-01T02:09:33;9.40;99.90
47168;DHT22;32931;47.778;17.806;2023-04-01T02:12:11;9.40;99.90
47168;DHT22;32931;47.778;17.806;2023-04-01T02:15:05;9.40;99.90
47168;DHT22;32931;47.778;17.806;2023-04-01T02:17:33;9.40;99.90
47168;DHT22;32931;47.778;17.806;2023-04-01T02:20:04;9.40;99.90
47168;DHT22;32931;47.778;17.806;2023-04-01T02:22:34;9.40;99.90
47168;DHT22;32931;47.778;17.806;2023-04-01T02:25:13;9.40;99.90
47168;DHT22;32931;47.778;17.806;2023-04-01T02:27:43;9.40;99.90
47168;DHT22;32931;47.778;17.806;2023-04-01T02:30:12;9.40;99.90
47168;DHT22;32931;47.778;17.806;2023-04-01T02:32:39;9.40;99.90
47168;DHT22;32931;47.778;17.806;2023-04-01T02:35:10;9.40;99.90
47168;DHT22;32931;47.778;17.806;2023-04-01T02:37:39;9.40;99.90
47168;DHT22;32931;47.778;17.806;2023-04-01T02:40:13;9.40;99.90
47168;DHT22;32931;47.778;17.806;2023-04-01T02:42:39;9.40;99.90
47168;DHT22;32931;47.778;17.806;2023-04-01T02:45:06;9.40;99.90
47168;DHT22;32931;47.778;17.806;2023-04-01T02:47:33;9.40;99.90
47168;DHT22;32931;47.778;17.806;2023-04-01T02:49:59;9.40;99.90
47168;DHT22;32931;47.778;17.806;2023-04-01T02:52:26;9.40;99.90
47168;DHT22;32931;47.778;17.806;2023-04-01T02:54:52;9.40;99.90
47168;DHT22;32931;47.778;17.806;2023-04-01T02:57:18;9.40;99.90
47168;DHT22;32931;47.778;17.806;2023-04-01T02:59:44;9.40;99.90
47168;DHT22;32931;47.778;17.806;2023-04-01T03:02:11;9.30;99.90
47168;DHT22;32931;47.778;17.806;2023-04-01T03:04:37;9.30;99.90
47168;DHT22;32931;47.778;17.806;2023-04-01T03:07:03;9.30;99.90
47168;DHT22;32931;47.778;17.806;2023-04-01T03:09:29;9.30;99.90
47168;DHT22;32931;47.778;17.806;2023-04-01T03:11:56;9.30;99.90
47168;DHT22;32931;47.778;17.806;2023-04-01T03:14:22;9.20;99.90
47168;DHT22;32931;47.778;17.806;2023-04-01T03:16:48;9.20;99.90
47168;DHT22;32931;47.778;17.806;2023-04-01T03:19:14;9.20;99.90
47168;DHT22;32931;47.778;17.806;2023-04-01T03:21:40;9.20;99.90
47168;DHT22;32931;47.778;17.806;2023-04-01T03:24:06;9.10;99.90
47168;DHT22;32931;47.778;17.806;2023-04-01T03:26:33;9.10;99.90
47168;DHT22;32931;47.778;17.806;2023-04-01T03:28:59;9.20;99.90
47168;DHT22;32931;47.778;17.806;2023-04-01T03:31:26;9.20;99.90
47168;DHT22;32931;47.778;17.806;2023-04-01T03:33:52;9.30;99.90
47168;DHT22;32931;47.778;17.806;2023-04-01T03:36:18;9.20;99.90
47168;DHT22;32931;47.778;17.806;2023-04-01T03:38:45;9.30;99.90
47168;DHT22;32931;47.778;17.806;2023-04-01T03:41:15;9.20;99.90
47168;DHT22;32931;47.778;17.806;2023-04-01T03:43:42;9.20;99.90
47168;DHT22;32931;47.778;17.806;2023-04-01T03:46:08;9.20;99.90
47168;DHT22;32931;47.778;17.806;2023-04-01T03:48:34;9.20;99.90
47168;DHT22;32931;47.778;17.806;2023-04-01T03:51:00;9.20;99.90
47168;DHT22;32931;47.778;17.806;2023-04-01T03:53:27;9.30;99.90
47168;DHT22;32931;47.778;17.806;2023-04-01T03:55:53;9.30;99.90
47168;DHT22;32931;47.778;17.806;2023-04-01T03:58:19;9.30;99.90
47168;DHT22;32931;47.778;17.806;2023-04-01T04:00:46;9.30;99.90
47168;DHT22;32931;47.778;17.806;2023-04-01T04:03:12;9.20;99.90
47168;DHT22;32931;47.778;17.806;2023-04-01T04:05:46;9.20;99.90
47168;DHT22;32931;47.778;17.806;2023-04-01T04:08:12;9.30;99.90
47168;DHT22;32931;47.778;17.806;2023-04-01T04:10:39;9.30;99.90
47168;DHT22;32931;47.778;17.806;2023-04-01T04:13:05;9.30;99.90
47168;DHT22;32931;47.778;17.806;2023-04-01T04:15:31;9.30;99.90
47168;DHT22;32931;47.778;17.806;2023-04-01T04:17:58;9.30;99.90
47168;DHT22;32931;47.778;17.806;2023-04-01T04:20:24;9.20;99.90
47168;DHT22;32931;47.778;17.806;2023-04-01T04:22:50;9.30;99.90
47168;DHT22;32931;47.778;17.806;2023-04-01T04:25:16;9.30;99.90
47168;DHT22;32931;47.778;17.806;2023-04-01T04:27:43;9.30;99.90
47168;DHT22;32931;47.778;17.806;2023-04-01T04:30:10;9.30;99.90
47168;DHT22;32931;47.778;17.806;2023-04-01T04:32:36;9.30;99.90
47168;DHT22;32931;47.778;17.806;2023-04-01T04:35:03;9.30;99.90
47168;DHT22;32931;47.778;17.806;2023-04-01T04:37:29;9.30;99.90
47168;DHT22;32931;47.778;17.806;2023-04-01T04:39:55;9.20;99.90
47168;DHT22;32931;47.778;17.806;2023-04-01T04:42:21;9.20;99.90
47168;DHT22;32931;47.778;17.806;2023-04-01T04:44:47;9.20;99.90
47168;DHT22;32931;47.778;17.806;2023-04-01T04:47:14;9.20;99.90
47168;DHT22;32931;47.778;17.806;2023-04-01T04:49:40;9.20;99.90
47168;DHT22;32931;47.778;17.806;2023-04-01T04:52:06;9.20;99.90
47168;DHT22;32931;47.778;17.806;2023-04-01T04:54:32;9.20;99.90
47168;DHT22;32931;47.778;17.806;2023-04-01T04:56:58;9.20;99.90
47168;DHT22;32931;47.778;17.806;2023-04-01T04:59:24;9.10;99.90
47168;DHT22;32931;47.778;17.806;2023-04-01T05:01:50;9.10;99.90
47168;DHT22;32931;47.778;17.806;2023-04-01T05:04:17;9.10;99.90
47168;DHT22;32931;47.778;17.806;2023-04-01T05:06:43;9.10;99.90
47168;DHT22;32931;47.778;17.806;2023-04-01T05:09:10;9.10;99.90
47168;DHT22;32931;47.778;17.806;2023-04-01T05:11:37;9.20;99.90
47168;DHT22;32931;47.778;17.806;2023-04-01T05:14:03;9.20;99.90
47168;DHT22;32931;47.778;17.806;2023-04-01T05:16:29;9.20;99.90
47168;DHT22;32931;47.778;17.806;2023-04-01T05:18:57;9.20;99.90
47168;DHT22;32931;47.778;17.806;2023-04-01T05:21:23;9.30;99.90
47168;DHT22;32931;47.778;17.806;2023-04-01T05:23:49;9.30;99.90
47168;DHT22;32931;47.778;17.806;2023-04-01T05:26:15;9.40;99.90
47168;DHT22;32931;47.778;17.806;2023-04-01T05:28:42;9.40;99.90
47168;DHT22;32931;47.778;17.806;2023-04-01T05:31:08;9.50;99.90
47168;DHT22;32931;47.778;17.806;2023-04-01T05:33:35;9.50;99.90
47168;DHT22;32931;47.778;17.806;2023-04-01T05:36:12;9.60;99.90
47168;DHT22;32931;47.778;17.806;2023-04-01T05:38:39;9.60;99.90
47168;DHT22;32931;47.778;17.806;2023-04-01T05:41:05;9.70;99.90
47168;DHT22;32931;47.778;17.806;2023-04-01T05:43:32;9.70;99.90
47168;DHT22;32931;47.778;17.806;2023-04-01T05:45:58;9.80;99.90
47168;DHT22;32931;47.778;17.806;2023-04-01T05:48:24;9.90;99.90
47168;DHT22;32931;47.778;17.806;2023-04-01T05:50:50;9.90;99.90
47168;DHT22;32931;47.778;17.806;2023-04-01T05:53:16;10.00;99.90
47168;DHT22;32931;47.778;17.806;2023-04-01T05:55:42;10.00;99.90
47168;DHT22;32931;47.778;17.806;2023-04-01T05:58:09;10.10;99.90
47168;DHT22;32931;47.778;17.806;2023-04-01T06:00:35;10.20;99.90
47168;DHT22;32931;47.778;17.806;2023-04-01T06:03:01;10.20;99.90
47168;DHT22;32931;47.778;17.806;2023-04-01T06:05:29;10.30;99.90
47168;DHT22;32931;47.778;17.806;2023-04-01T06:08:05;10.30;99.90
47168;DHT22;32931;47.778;17.806;2023-04-01T06:10:48;10.40;99.90
47168;DHT22;32931;47.778;17.806;2023-04-01T06:13:24;10.50;99.90
47168;DHT22;32931;47.778;17.806;2023-04-01T06:26:39;10.90;99.90
47168;DHT22;32931;47.778;17.806;2023-04-01T06:29:41;10.90;99.90
47168;DHT22;32931;47.778;17.806;2023-04-01T06:46:09;11.30;99.90
47168;DHT22;32931;47.778;17.806;2023-04-01T06:54:24;11.30;99.90
47168;DHT22;32931;47.778;17.806;2023-04-01T06:56:57;11.30;99.90
47168;DHT22;32931;47.778;17.806;2023-04-01T06:59:28;11.40;99.90
47168;DHT22;32931;47.778;17.806;2023-04-01T07:04:32;11.50;99.90
47168;DHT22;32931;47.778;17.806;2023-04-01T07:07:04;11.50;99.90
47168;DHT22;32931;47.778;17.806;2023-04-01T07:09:34;11.60;99.90
47168;DHT22;32931;47.778;17.806;2023-04-01T07:12:10;11.60;99.90
47168;DHT22;32931;47.778;17.806;2023-04-01T07:14:41;11.60;99.90
47168;DHT22;32931;47.778;17.806;2023-04-01T07:17:27;11.60;99.90
47168;DHT22;32931;47.778;17.806;2023-04-01T07:25:02;11.70;99.90
47168;DHT22;32931;47.778;17.806;2023-04-01T07:27:29;11.80;99.90
47168;DHT22;32931;47.778;17.806;2023-04-01T07:29:58;11.80;99.90
47168;DHT22;32931;47.778;17.806;2023-04-01T07:32:45;11.90;99.90
47168;DHT22;32931;47.778;17.806;2023-04-01T07:54:09;12.40;99.90
47168;DHT22;32931;47.778;17.806;2023-04-01T08:02:10;12.50;99.90
47168;DHT22;32931;47.778;17.806;2023-04-01T08:07:25;12.60;99.90
47168;DHT22;32931;47.778;17.806;2023-04-01T08:15:10;12.70;99.90
47168;DHT22;32931;47.778;17.806;2023-04-01T08:18:02;12.60;99.90
47168;DHT22;32931;47.778;17.806;2023-04-01T08:20:42;12.70;99.90
47168;DHT22;32931;47.778;17.806;2023-04-01T08:23:27;12.90;99.90
47168;DHT22;32931;47.778;17.806;2023-04-01T08:26:12;13.00;99.90
47168;DHT22;32931;47.778;17.806;2023-04-01T08:28:44;13.10;99.90
47168;DHT22;32931;47.778;17.806;2023-04-01T08:34:01;13.30;99.90
47168;DHT22;32931;47.778;17.806;2023-04-01T08:36:45;13.40;99.90
47168;DHT22;32931;47.778;17.806;2023-04-01T08:39:18;13.50;99.90
47168;DHT22;32931;47.778;17.806;2023-04-01T08:55:40;14.10;99.90
47168;DHT22;32931;47.778;17.806;2023-04-01T09:01:13;14.20;99.90
47168;DHT22;32931;47.778;17.806;2023-04-01T09:04:41;14.30;99.90
47168;DHT22;32931;47.778;17.806;2023-04-01T09:07:24;14.20;99.90
47168;DHT22;32931;47.778;17.806;2023-04-01T09:12:50;14.30;99.90
47168;DHT22;32931;47.778;17.806;2023-04-01T09:23:33;14.50;99.90
47168;DHT22;32931;47.778;17.806;2023-04-01T09:28:37;14.70;99.90
47168;DHT22;32931;47.778;17.806;2023-04-01T09:33:59;14.60;99.90
47168;DHT22;32931;47.778;17.806;2023-04-01T09:39:37;14.60;99.90
47168;DHT22;32931;47.778;17.806;2023-04-01T09:45:01;14.60;99.90
47168;DHT22;32931;47.778;17.806;2023-04-01T09:50:38;14.60;99.90
47168;DHT22;32931;47.778;17.806;2023-04-01T10:29:29;14.50;99.90
47168;DHT22;32931;47.778;17.806;2023-04-01T10:32:18;14.60;99.90
47168;DHT22;32931;47.778;17.806;2023-04-01T10:43:07;14.80;99.90
47168;DHT22;32931;47.778;17.806;2023-04-01T10:46:09;14.90;99.90
47168;DHT22;32931;47.778;17.806;2023-04-01T11:05:33;15.20;99.90
47168;DHT22;32931;47.778;17.806;2023-04-01T11:08:14;15.20;99.90
47168;DHT22;32931;47.778;17.806;2023-04-01T11:11:15;15.20;99.90
47168;DHT22;32931;47.778;17.806;2023-04-01T11:33:00;15.20;97.00
47168;DHT22;32931;47.778;17.806;2023-04-01T11:38:19;15.40;99.50
47168;DHT22;32931;47.778;17.806;2023-04-01T11:49:49;15.90;99.80
47168;DHT22;32931;47.778;17.806;2023-04-01T12:26:06;16.60;95.50
47168;DHT22;32931;47.778;17.806;2023-04-01T12:36:32;17.00;95.90
47168;DHT22;32931;47.778;17.806;2023-04-01T12:42:21;17.30;96.40
47168;DHT22;32931;47.778;17.806;2023-04-01T12:50:56;17.50;93.50
47168;DHT22;32931;47.778;17.806;2023-04-01T13:08:22;17.30;94.20
47168;DHT22;32931;47.778;17.806;2023-04-01T13:11:14;17.30;93.60
47168;DHT22;32931;47.778;17.806;2023-04-01T13:16:27;16.90;93.10
47168;DHT22;32931;47.778;17.806;2023-04-01T13:19:17;16.80;93.30
47168;DHT22;32931;47.778;17.806;2023-04-01T13:32:50;16.90;93.70
47168;DHT22;32931;47.778;17.806;2023-04-01T13:43:42;18.10;89.80
47168;DHT22;32931;47.778;17.806;2023-04-01T13:52:08;18.10;87.50
47168;DHT22;32931;47.778;17.806;2023-04-01T13:55:17;17.80;87.70
47168;DHT22;32931;47.778;17.806;2023-04-01T14:00:38;18.20;86.30
47168;DHT22;32931;47.778;17.806;2023-04-01T14:06:17;18.80;86.90
47168;DHT22;32931;47.778;17.806;2023-04-01T14:50:21;22.20;70.70
47168;DHT22;32931;47.778;17.806;2023-04-01T14:55:53;22.00;66.50
47168;DHT22;32931;47.778;17.806;2023-04-01T14:58:21;21.80;66.70
47168;DHT22;32931;47.778;17.806;2023-04-01T15:17:43;23.60;62.50
47168;DHT22;32931;47.778;17.806;2023-04-01T15:23:13;23.60;61.80
47168;DHT22;32931;47.778;17.806;2023-04-01T15:38:58;25.70;60.40
47168;DHT22;32931;47.778;17.806;2023-04-01T15:41:35;25.60;58.80
47168;DHT22;32931;47.778;17.806;2023-04-01T15:44:04;25.90;59.60
47168;DHT22;32931;47.778;17.806;2023-04-01T15:46:41;26.10;58.80
47168;DHT22;32931;47.778;17.806;2023-04-01T15:49:31;26.40;58.90
47168;DHT22;32931;47.778;17.806;2023-04-01T15:57:32;25.70;54.50
47168;DHT22;32931;47.778;17.806;2023-04-01T16:24:48;23.80;56.50
47168;DHT22;32931;47.778;17.806;2023-04-01T16:27:27;23.50;58.60
47168;DHT22;32931;47.778;17.806;2023-04-01T16:32:35;22.60;58.30
47168;DHT22;32931;47.778;17.806;2023-04-01T16:46:14;19.70;64.50
47168;DHT22;32931;47.778;17.806;2023-04-01T16:49:27;19.40;65.20
47168;DHT22;32931;47.778;17.806;2023-04-01T16:52:14;19.20;66.60
47168;DHT22;32931;47.778;17.806;2023-04-01T17:02:37;18.30;68.40
47168;DHT22;32931;47.778;17.806;2023-04-01T17:05:12;18.20;68.80
47168;DHT22;32931;47.778;17.806;2023-04-01T17:08:02;18.00;69.50
47168;DHT22;32931;47.778;17.806;2023-04-01T17:21:13;17.40;72.30
47168;DHT22;32931;47.778;17.806;2023-04-01T17:26:48;17.20;73.20
47168;DHT22;32931;47.778;17.806;2023-04-01T17:34:59;16.80;73.40
47168;DHT22;32931;47.778;17.806;2023-04-01T17:49:08;16.30;76.40
47168;DHT22;32931;47.778;17.806;2023-04-01T17:51:31;16.20;76.80
47168;DHT22;32931;47.778;17.806;2023-04-01T17:59:35;15.90;77.40
47168;DHT22;32931;47.778;17.806;2023-04-01T18:02:26;15.90;77.50
47168;DHT22;32931;47.778;17.806;2023-04-01T18:22:09;15.30;77.90
47168;DHT22;32931;47.778;17.806;2023-04-01T18:25:02;15.20;78.40
47168;DHT22;32931;47.778;17.806;2023-04-01T18:27:40;15.00;79.60
47168;DHT22;32931;47.778;17.806;2023-04-01T18:30:31;14.80;81.60
47168;DHT22;32931;47.778;17.806;2023-04-01T18:33:50;14.70;81.90
47168;DHT22;32931;47.778;17.806;2023-04-01T18:36:19;14.60;80.80
47168;DHT22;32931;47.778;17.806;2023-04-01T18:41:25;14.30;82.00
47168;DHT22;32931;47.778;17.806;2023-04-01T18:44:16;14.30;82.30
47168;DHT22;32931;47.778;17.806;2023-04-01T18:47:05;14.20;81.90
47168;DHT22;32931;47.778;17.806;2023-04-01T18:49:45;14.10;82.80
47168;DHT22;32931;47.778;17.806;2023-04-01T18:57:38;13.90;84.00
47168;DHT22;32931;47.778;17.806;2023-04-01T19:00:28;13.80;84.40
47168;DHT22;32931;47.778;17.806;2023-04-01T19:03:20;13.70;86.00
47168;DHT22;32931;47.778;17.806;2023-04-01T19:05:50;13.60;86.60
47168;DHT22;32931;47.778;17.806;2023-04-01T19:08:40;13.50;86.90
47168;DHT22;32931;47.778;17.806;2023-04-01T19:11:12;13.50;87.70
47168;DHT22;32931;47.778;17.806;2023-04-01T19:14:06;13.40;88.10
47168;DHT22;32931;47.778;17.806;2023-04-01T19:16:43;13.30;88.70
47168;DHT22;32931;47.778;17.806;2023-04-01T19:19:21;13.30;89.20
47168;DHT22;32931;47.778;17.806;2023-04-01T19:27:42;13.20;90.40
47168;DHT22;32931;47.778;17.806;2023-04-01T19:35:46;13.00;91.40
47168;DHT22;32931;47.778;17.806;2023-04-01T19:38:30;12.90;91.70
47168;DHT22;32931;47.778;17.806;2023-04-01T19:44:18;12.80;92.00
47168;DHT22;32931;47.778;17.806;2023-04-01T19:47:14;12.80;92.30
47168;DHT22;32931;47.778;17.806;2023-04-01T19:52:14;12.70;92.70
47168;DHT22;32931;47.778;17.806;2023-04-01T20:14:18;12.30;95.70
47168;DHT22;32931;47.778;17.806;2023-04-01T20:16:55;12.30;96.10
47168;DHT22;32931;47.778;17.806;2023-04-01T20:24:52;12.10;97.30
47168;DHT22;32931;47.778;17.806;2023-04-01T20:27:24;12.10;98.00
47168;DHT22;32931;47.778;17.806;2023-04-01T20:30:24;12.10;98.20
47168;DHT22;32931;47.778;17.806;2023-04-01T20:44:55;11.90;99.90
47168;DHT22;32931;47.778;17.806;2023-04-01T20:53:42;12.00;99.90
47168;DHT22;32931;47.778;17.806;2023-04-01T21:12:48;11.90;99.90
47168;DHT22;32931;47.778;17.806;2023-04-01T21:34:57;12.00;99.90
47168;DHT22;32931;47.778;17.806;2023-04-01T22:13:42;11.60;99.90
47168;DHT22;32931;47.778;17.806;2023-04-01T22:16:39;11.60;99.90
47168;DHT22;32931;47.778;17.806;2023-04-01T22:27:51;11.50;99.90
47168;DHT22;32931;47.778;17.806;2023-04-01T22:30:33;11.50;99.90
47168;DHT22;32931;47.778;17.806;2023-04-01T22:33:07;11.50;99.90
47168;DHT22;32931;47.778;17.806;2023-04-01T22:36:24;11.40;99.90
47168;DHT22;32931;47.778;17.806;2023-04-01T22:38:50;11.40;99.90
47168;DHT22;32931;47.778;17.806;2023-04-01T22:43:56;11.40;99.90
47168;DHT22;32931;47.778;17.806;2023-04-01T22:47:02;11.40;99.90
47168;DHT22;32931;47.778;17.806;2023-04-01T22:49:38;11.40;99.90
47168;DHT22;32931;47.778;17.806;2023-04-01T22:55:01;11.40;99.90
47168;DHT22;32931;47.778;17.806;2023-04-01T23:00:45;11.40;99.90
47168;DHT22;32931;47.778;17.806;2023-04-01T23:05:48;11.30;99.90
47168;DHT22;32931;47.778;17.806;2023-04-01T23:11:05;11.30;99.90
47168;DHT22;32931;47.778;17.806;2023-04-01T23:13:39;11.30;99.90
47168;DHT22;32931;47.778;17.806;2023-04-01T23:16:08;11.30;99.90
47168;DHT22;32931;47.778;17.806;2023-04-01T23:19:00;11.30;99.90
47168;DHT22;32931;47.778;17.806;2023-04-01T23:21:44;11.30;99.90
47168;DHT22;32931;47.778;17.806;2023-04-01T23:24:36;11.40;99.90
47168;DHT22;32931;47.778;17.806;2023-04-01T23:29:35;11.30;99.90
47168;DHT22;32931;47.778;17.806;2023-04-01T23:32:03;11.30;99.90
47168;DHT22;32931;47.778;17.806;2023-04-01T23:34:35;11.30;99.90
47168;DHT22;32931;47.778;17.806;2023-04-01T23:37:04;11.30;99.90
47168;DHT22;32931;47.778;17.806;2023-04-01T23:42:22;11.30;99.90
47168;DHT22;32931;47.778;17.806;2023-04-01T23:44:52;11.30;99.90
47168;DHT22;32931;47.778;17.806;2023-04-01T23:47:33;11.30;99.90
47168;DHT22;32931;47.778;17.806;2023-04-01T23:50:12;11.30;99.90
47168;DHT22;32931;47.778;17.806;2023-04-01T23:52:43;11.30;99.90
